Time;durP1;ratioP1;P1;durP2;ratioP2;P2;SDS_P1;SDS_P2;PMS_P1;PMS_P2;Temp;Humidity;BMP_temperature;BMP_pressure;BME280_temperature;BME280_humidity;BME280_pressure;Samples;Min_cycle;Max_cycle;Signal;HPM_P1;HPM_P2
2023/08/27 00:00:45;;;;;;;;;;;23.70;62.70;;;;;;8503372;27;19919;-50
2023/08/27 00:04:45;;;;;;;;;;;23.70;62.70;;;;;;8517750;27;19916;-51
2023/08/27 00:08:46;;;;;;;;;;;23.70;62.70;;;;;;8502888;27;19912;-51
2023/08/27 00:12:46;;;;;;;;;;;23.70;62.70;;;;;;8501648;27;19956;-51
2023/08/27 00:16:47;;;;;;;;;;;23.70;62.60;;;;;;8502817;27;19923;-52
2023/08/27 00:20:48;;;;;;;;;;;23.70;62.60;;;;;;8501772;27;19918;-51
2023/08/27 00:24:48;;;;;;;;;;;23.70;62.70;;;;;;8501906;27;19907;-50
2023/08/27 00:28:49;;;;;;;;;;;23.70;62.70;;;;;;8502438;27;19918;-52
2023/08/27 00:32:49;;;;;;;;;;;23.70;62.80;;;;;;8500593;27;19965;-51
2023/08/27 00:36:50;;;;;;;;;;;23.70;62.80;;;;;;8483856;27;19919;-51
2023/08/27 00:40:51;;;;;;;;;;;23.70;62.90;;;;;;8501008;27;19917;-52
2023/08/27 00:44:51;;;;;;;;;;;23.70;62.90;;;;;;8518077;27;19911;-52
2023/08/27 00:48:52;;;;;;;;;;;23.70;62.90;;;;;;8501226;27;19912;-52
2023/08/27 00:52:53;;;;;;;;;;;23.70;62.80;;;;;;8501489;27;19912;-51
2023/08/27 00:56:54;;;;;;;;;;;23.70;62.80;;;;;;8500912;27;20398;-51
2023/08/27 01:00:54;;;;;;;;;;;23.70;62.80;;;;;;8501754;27;20280;-51
2023/08/27 01:04:55;;;;;;;;;;;23.70;62.90;;;;;;8500462;27;19915;-50
2023/08/27 01:09:04;;;;;;;;;;;23.70;62.80;;;;;;8500489;27;19956;-50
2023/08/27 01:13:07;;;;;;;;;;;23.70;62.90;;;;;;8501109;27;19912;-51
2023/08/27 01:17:08;;;;;;;;;;;23.70;62.80;;;;;;8499476;27;20582;-51
2023/08/27 01:21:19;;;;;;;;;;;23.70;62.90;;;;;;8500784;27;19907;-53
2023/08/27 01:25:21;;;;;;;;;;;23.70;62.80;;;;;;8499487;27;19911;-52
2023/08/27 01:29:25;;;;;;;;;;;23.70;62.80;;;;;;8481940;27;19907;-52
2023/08/27 01:33:26;;;;;;;;;;;23.60;62.80;;;;;;8481312;27;19907;-49
2023/08/27 01:37:28;;;;;;;;;;;23.70;62.80;;;;;;8499620;27;19907;-53
2023/08/27 01:41:28;;;;;;;;;;;23.70;62.80;;;;;;8514827;27;19918;-51
2023/08/27 01:45:29;;;;;;;;;;;23.70;62.90;;;;;;8498516;27;19916;-52
2023/08/27 01:49:29;;;;;;;;;;;23.70;63.00;;;;;;8499684;27;20300;-52
2023/08/27 01:53:30;;;;;;;;;;;23.70;62.90;;;;;;8498172;27;19912;-52
2023/08/27 01:57:30;;;;;;;;;;;23.60;62.80;;;;;;8499642;27;19912;-51
2023/08/27 02:01:31;;;;;;;;;;;23.70;62.90;;;;;;8497970;27;19912;-51
2023/08/27 02:05:31;;;;;;;;;;;23.70;62.90;;;;;;8498996;27;19923;-52
2023/08/27 02:09:32;;;;;;;;;;;23.70;63.00;;;;;;8498117;27;19930;-50
2023/08/27 02:13:32;;;;;;;;;;;23.60;62.80;;;;;;8498683;27;20041;-53
2023/08/27 02:17:33;;;;;;;;;;;23.60;62.80;;;;;;8498026;27;19923;-51
2023/08/27 02:21:34;;;;;;;;;;;23.70;62.90;;;;;;8497925;27;19911;-52
2023/08/27 02:25:34;;;;;;;;;;;23.60;62.80;;;;;;8498865;27;19915;-50
2023/08/27 02:29:35;;;;;;;;;;;23.70;62.90;;;;;;8497162;27;19912;-52
2023/08/27 02:33:36;;;;;;;;;;;23.60;62.80;;;;;;8498399;27;20302;-51
2023/08/27 02:37:36;;;;;;;;;;;23.60;62.80;;;;;;8496814;27;19918;-52
2023/08/27 02:41:37;;;;;;;;;;;23.60;63.60;;;;;;8498247;27;19915;-51
2023/08/27 02:45:38;;;;;;;;;;;23.60;62.80;;;;;;8496615;27;20415;-52
2023/08/27 02:49:38;;;;;;;;;;;23.70;62.90;;;;;;8498069;27;20384;-51
2023/08/27 02:53:39;;;;;;;;;;;23.60;62.80;;;;;;8512917;27;20022;-51
2023/08/27 02:57:39;;;;;;;;;;;23.60;62.80;;;;;;8497181;27;19912;-52
2023/08/27 03:01:42;;;;;;;;;;;23.60;62.90;;;;;;8496884;27;20356;-51
2023/08/27 03:05:43;;;;;;;;;;;23.60;62.90;;;;;;8497147;27;19915;-50
2023/08/27 03:09:43;;;;;;;;;;;23.70;63.00;;;;;;8497476;27;20586;-51
2023/08/27 03:13:44;;;;;;;;;;;23.60;62.90;;;;;;8477694;27;19922;-51
2023/08/27 03:17:44;;;;;;;;;;;23.60;62.90;;;;;;8479041;28;19983;-50
2023/08/27 03:21:45;;;;;;;;;;;23.60;62.90;;;;;;8495717;28;19918;-50
2023/08/27 03:25:48;;;;;;;;;;;23.60;62.90;;;;;;8497373;27;20384;-51
2023/08/27 03:29:48;;;;;;;;;;;23.60;62.90;;;;;;8496015;28;19907;-52
2023/08/27 03:33:49;;;;;;;;;;;23.60;62.80;;;;;;8496382;28;19926;-51
2023/08/27 03:37:49;;;;;;;;;;;23.60;62.80;;;;;;8477250;28;20010;-51
2023/08/27 03:41:50;;;;;;;;;;;23.60;62.80;;;;;;8495796;28;20422;-50
2023/08/27 03:45:51;;;;;;;;;;;23.60;62.90;;;;;;8496709;28;19950;-51
2023/08/27 03:49:51;;;;;;;;;;;23.60;62.90;;;;;;8496383;28;19935;-52
2023/08/27 03:53:52;;;;;;;;;;;23.60;62.80;;;;;;8496776;28;19914;-52
2023/08/27 03:57:52;;;;;;;;;;;23.60;62.80;;;;;;8495636;27;19919;-50
2023/08/27 04:01:53;;;;;;;;;;;23.60;62.80;;;;;;8496810;28;19911;-51
2023/08/27 04:05:53;;;;;;;;;;;23.60;62.80;;;;;;8497611;27;20292;-50
2023/08/27 04:09:54;;;;;;;;;;;23.60;62.80;;;;;;8502838;27;19921;-52
2023/08/27 04:13:55;;;;;;;;;;;23.60;62.80;;;;;;8501198;27;19923;-52
2023/08/27 04:17:55;;;;;;;;;;;23.60;62.80;;;;;;8501612;27;20388;-51
2023/08/27 04:21:56;;;;;;;;;;;23.60;62.90;;;;;;8501457;27;19980;-52
2023/08/27 04:25:56;;;;;;;;;;;23.60;62.90;;;;;;8502161;27;19915;-52
2023/08/27 04:29:57;;;;;;;;;;;23.60;62.80;;;;;;8502567;27;20002;-52
2023/08/27 04:33:57;;;;;;;;;;;23.60;62.80;;;;;;8501282;27;20410;-52
2023/08/27 04:37:58;;;;;;;;;;;23.60;62.80;;;;;;8502251;27;20003;-52
2023/08/27 04:41:58;;;;;;;;;;;23.60;63.60;;;;;;8517509;27;20376;-53
2023/08/27 04:45:59;;;;;;;;;;;23.60;62.80;;;;;;8501913;27;19915;-51
2023/08/27 04:49:59;;;;;;;;;;;23.60;62.80;;;;;;8500853;27;20002;-51
2023/08/27 04:54:01;;;;;;;;;;;23.60;62.80;;;;;;8501670;27;20399;-51
2023/08/27 04:58:04;;;;;;;;;;;23.60;62.80;;;;;;8500424;27;20456;-50
2023/08/27 05:02:04;;;;;;;;;;;23.60;62.80;;;;;;8501212;27;20410;-51
2023/08/27 05:06:05;;;;;;;;;;;23.60;62.80;;;;;;8500645;27;19915;-51
2023/08/27 05:10:05;;;;;;;;;;;23.60;62.80;;;;;;8482126;27;20162;-52
2023/08/27 05:14:06;;;;;;;;;;;23.60;62.70;;;;;;8500794;27;19914;-50
2023/08/27 05:18:06;;;;;;;;;;;23.50;62.70;;;;;;8499153;27;20354;-52
2023/08/27 05:22:07;;;;;;;;;;;23.60;62.70;;;;;;8500509;27;19915;-51
2023/08/27 05:26:08;;;;;;;;;;;23.60;62.70;;;;;;8499292;27;19915;-51
2023/08/27 05:30:08;;;;;;;;;;;23.60;62.70;;;;;;8500421;27;20395;-51
2023/08/27 05:34:09;;;;;;;;;;;23.50;62.60;;;;;;8498960;27;19918;-50
2023/08/27 05:38:09;;;;;;;;;;;23.50;62.70;;;;;;8500104;27;19918;-52
2023/08/27 05:42:10;;;;;;;;;;;23.50;62.70;;;;;;8498634;27;19907;-52
2023/08/27 05:46:10;;;;;;;;;;;23.60;62.70;;;;;;8499600;27;19969;-50
2023/08/27 05:50:11;;;;;;;;;;;23.50;62.60;;;;;;8499064;27;19911;-49
2023/08/27 05:54:11;;;;;;;;;;;23.50;62.60;;;;;;8498859;27;19938;-51
2023/08/27 05:58:12;;;;;;;;;;;23.60;62.70;;;;;;8499842;27;19999;-49
2023/08/27 06:02:13;;;;;;;;;;;23.50;62.60;;;;;;8497956;27;19912;-52
2023/08/27 06:06:14;;;;;;;;;;;23.50;62.60;;;;;;8499546;27;19915;-51
2023/08/27 06:10:14;;;;;;;;;;;23.50;62.50;;;;;;8497741;27;20399;-51
2023/08/27 06:14:15;;;;;;;;;;;23.50;62.60;;;;;;8499099;27;19933;-49
2023/08/27 06:18:15;;;;;;;;;;;23.50;62.50;;;;;;8497457;27;19930;-50
2023/08/27 06:22:16;;;;;;;;;;;23.50;62.50;;;;;;8498815;27;19917;-50
2023/08/27 06:26:16;;;;;;;;;;;23.50;62.50;;;;;;8497563;27;19911;-51
2023/08/27 06:30:17;;;;;;;;;;;23.50;62.50;;;;;;8497694;27;20368;-52
2023/08/27 06:34:17;;;;;;;;;;;23.60;62.50;;;;;;8497680;27;20300;-52
2023/08/27 06:38:18;;;;;;;;;;;23.50;62.30;;;;;;8497832;27;19918;-53
2023/08/27 06:42:18;;;;;;;;;;;23.50;62.50;;;;;;8498035;27;19911;-51
2023/08/27 06:46:19;;;;;;;;;;;23.50;62.50;;;;;;8496766;27;19922;-50
2023/08/27 06:50:20;;;;;;;;;;;23.50;62.50;;;;;;8497720;27;19998;-51
2023/08/27 06:54:20;;;;;;;;;;;23.60;62.50;;;;;;8497150;27;19914;-50
2023/08/27 06:58:21;;;;;;;;;;;23.50;62.50;;;;;;8498363;27;19960;-52
2023/08/27 07:02:21;;;;;;;;;;;23.50;62.40;;;;;;8496378;27;19960;-49
2023/08/27 07:06:22;;;;;;;;;;;23.50;62.50;;;;;;8497357;27;19912;-52
2023/08/27 07:10:22;;;;;;;;;;;23.50;62.40;;;;;;8496391;27;20283;-50
2023/08/27 07:14:23;;;;;;;;;;;23.50;62.30;;;;;;8497523;27;19912;-52
2023/08/27 07:18:23;;;;;;;;;;;23.60;62.40;;;;;;8497025;27;20014;-51
2023/08/27 07:22:25;;;;;;;;;;;23.50;62.40;;;;;;8496885;28;20373;-51
2023/08/27 07:26:25;;;;;;;;;;;23.50;62.30;;;;;;8497723;27;19911;-50
2023/08/27 07:30:27;;;;;;;;;;;23.50;62.30;;;;;;8496125;28;20369;-52
2023/08/27 07:34:27;;;;;;;;;;;23.50;62.30;;;;;;8497488;28;19915;-51
2023/08/27 07:38:28;;;;;;;;;;;23.50;62.30;;;;;;8495675;28;20433;-50
2023/08/27 07:42:28;;;;;;;;;;;23.50;63.20;;;;;;8502640;27;20139;-52
2023/08/27 07:46:29;;;;;;;;;;;23.50;62.30;;;;;;8502591;27;19916;-52
2023/08/27 07:50:29;;;;;;;;;;;23.50;62.30;;;;;;8503891;27;19954;-50
2023/08/27 07:54:30;;;;;;;;;;;23.50;62.30;;;;;;8502730;27;19911;-51
2023/08/27 07:58:30;;;;;;;;;;;23.50;62.30;;;;;;8503404;27;19912;-52
2023/08/27 08:02:31;;;;;;;;;;;23.60;62.40;;;;;;8502655;27;20452;-51
2023/08/27 08:06:31;;;;;;;;;;;23.50;62.30;;;;;;8502480;27;19915;-52
2023/08/27 08:10:32;;;;;;;;;;;23.50;62.30;;;;;;8502917;27;20003;-51
2023/08/27 08:14:32;;;;;;;;;;;23.50;62.40;;;;;;8501657;27;19972;-51
2023/08/27 08:18:33;;;;;;;;;;;23.50;62.40;;;;;;8502638;27;19936;-52
2023/08/27 08:22:34;;;;;;;;;;;23.50;62.30;;;;;;8501280;27;19926;-51
2023/08/27 08:26:34;;;;;;;;;;;23.50;62.30;;;;;;8484412;27;20391;-52
2023/08/27 08:30:35;;;;;;;;;;;23.50;62.30;;;;;;8500994;27;19911;-51
2023/08/27 08:34:36;;;;;;;;;;;23.50;62.30;;;;;;8502322;27;19911;-53
2023/08/27 08:38:36;;;;;;;;;;;23.50;62.30;;;;;;8500719;27;19907;-51
2023/08/27 08:42:41;;;;;;;;;;;23.50;62.30;;;;;;8501608;27;19912;-52
2023/08/27 08:46:43;;;;;;;;;;;23.50;62.30;;;;;;8500082;27;19960;-51
2023/08/27 08:50:44;;;;;;;;;;;23.50;62.30;;;;;;8499671;27;19954;-50
2023/08/27 08:54:47;;;;;;;;;;;23.50;62.30;;;;;;8501872;27;19911;-50
2023/08/27 08:58:52;;;;;;;;;;;23.50;62.30;;;;;;8500688;27;19912;-51
2023/08/27 09:02:53;;;;;;;;;;;23.50;62.30;;;;;;8501296;27;19950;-52
2023/08/27 09:06:54;;;;;;;;;;;23.50;62.30;;;;;;8500028;27;19923;-49
2023/08/27 09:10:56;;;;;;;;;;;23.50;62.30;;;;;;8501211;27;20449;-49
2023/08/27 09:14:57;;;;;;;;;;;23.50;62.30;;;;;;8499728;27;19923;-52
2023/08/27 09:18:57;;;;;;;;;;;23.50;62.30;;;;;;8500635;27;19923;-52
2023/08/27 09:22:58;;;;;;;;;;;23.50;62.30;;;;;;8499776;27;19912;-51
2023/08/27 09:26:59;;;;;;;;;;;23.50;62.30;;;;;;8499605;27;20292;-53
2023/08/27 09:31:01;;;;;;;;;;;23.50;62.30;;;;;;8500061;27;20348;-51
2023/08/27 09:35:03;;;;;;;;;;;23.50;62.40;;;;;;8499620;27;19919;-50
2023/08/27 09:39:07;;;;;;;;;;;23.50;62.30;;;;;;8500286;27;19907;-51
2023/08/27 09:43:08;;;;;;;;;;;23.50;62.30;;;;;;8498855;27;19907;-53
2023/08/27 09:47:10;;;;;;;;;;;23.50;62.30;;;;;;8500033;27;19930;-52
2023/08/27 09:51:11;;;;;;;;;;;23.50;62.30;;;;;;8498498;27;19911;-51
2023/08/27 09:55:12;;;;;;;;;;;23.50;62.30;;;;;;8499946;27;19912;-50
2023/08/27 09:59:16;;;;;;;;;;;23.50;62.30;;;;;;8498734;27;19907;-52
2023/08/27 10:03:21;;;;;;;;;;;23.50;62.40;;;;;;8498033;27;20325;-50
2023/08/27 10:07:22;;;;;;;;;;;23.50;62.30;;;;;;8514967;27;20463;-52
2023/08/27 10:11:23;;;;;;;;;;;23.50;62.30;;;;;;8497802;27;20380;-50
2023/08/27 10:15:24;;;;;;;;;;;23.50;62.30;;;;;;8498897;27;20265;-50
2023/08/27 10:19:24;;;;;;;;;;;23.50;63.20;;;;;;8497619;27;19990;-54
2023/08/27 10:23:25;;;;;;;;;;;23.50;62.30;;;;;;8498642;27;19915;-52
2023/08/27 10:27:26;;;;;;;;;;;23.50;62.30;;;;;;8497601;27;19958;-51
2023/08/27 10:31:27;;;;;;;;;;;23.50;62.30;;;;;;8514491;27;19912;-50
2023/08/27 10:35:27;;;;;;;;;;;23.50;62.30;;;;;;8498027;27;19912;-51
2023/08/27 10:39:29;;;;;;;;;;;23.50;62.30;;;;;;8497609;27;19907;-54
2023/08/27 10:43:34;;;;;;;;;;;23.50;62.30;;;;;;8497303;27;20340;-52
2023/08/27 10:47:35;;;;;;;;;;;23.50;62.30;;;;;;8496825;27;19915;-51
2023/08/27 10:51:35;;;;;;;;;;;23.50;62.30;;;;;;8497886;27;19911;-52
2023/08/27 10:55:36;;;;;;;;;;;23.50;62.30;;;;;;8496781;27;20428;-49
2023/08/27 10:59:40;;;;;;;;;;;23.50;62.30;;;;;;8497777;27;20310;-52
2023/08/27 11:03:51;;;;;;;;;;;23.50;62.30;;;;;;8496253;27;20368;-50
2023/08/27 11:07:52;;;;;;;;;;;23.50;62.30;;;;;;8497441;27;19915;-53
2023/08/27 11:11:54;;;;;;;;;;;23.50;62.30;;;;;;8496601;27;19915;-51
2023/08/27 11:15:54;;;;;;;;;;;23.50;62.30;;;;;;8496489;27;20350;-51
2023/08/27 11:20:15;;;;;;;;;;;23.50;62.30;;;;;;8497166;27;19953;-50
2023/08/27 11:24:15;;;;;;;;;;;23.50;62.30;;;;;;8496411;27;19912;-51
2023/08/27 11:28:16;;;;;;;;;;;23.50;62.30;;;;;;8497218;27;19918;-52
2023/08/27 11:32:17;;;;;;;;;;;23.50;62.30;;;;;;8511939;27;19912;-50
2023/08/27 11:36:18;;;;;;;;;;;23.50;62.30;;;;;;8496921;28;19911;-51
2023/08/27 11:40:19;;;;;;;;;;;23.50;62.30;;;;;;8496314;28;19912;-49
2023/08/27 11:44:20;;;;;;;;;;;23.50;62.30;;;;;;8496285;28;19935;-51
2023/08/27 11:48:20;;;;;;;;;;;23.50;62.30;;;;;;8496273;28;19911;-52
2023/08/27 11:52:21;;;;;;;;;;;23.40;62.30;;;;;;8495197;28;20019;-51
2023/08/27 11:56:21;;;;;;;;;;;23.40;62.30;;;;;;8497373;27;19907;-52
2023/08/27 12:00:22;;;;;;;;;;;23.40;62.30;;;;;;8495434;28;20006;-52
2023/08/27 12:04:26;;;;;;;;;;;23.50;62.40;;;;;;8496484;28;19911;-50
2023/08/27 12:08:27;;;;;;;;;;;23.50;62.30;;;;;;8495248;28;19922;-50
2023/08/27 12:12:28;;;;;;;;;;;23.50;62.30;;;;;;8496591;28;19912;-52
2023/08/27 12:16:34;;;;;;;;;;;23.50;62.30;;;;;;8495107;28;19941;-52
2023/08/27 12:20:36;;;;;;;;;;;23.50;62.30;;;;;;8496368;28;19947;-51
2023/08/27 12:24:43;;;;;;;;;;;23.50;62.30;;;;;;8496033;27;19919;-51
2023/08/27 12:28:52;;;;;;;;;;;23.50;62.30;;;;;;8501071;27;19951;-51
2023/08/27 12:32:54;;;;;;;;;;;23.50;62.30;;;;;;8502335;27;19919;-50
2023/08/27 12:36:54;;;;;;;;;;;23.50;63.10;;;;;;8500893;27;19907;-51
2023/08/27 12:40:55;;;;;;;;;;;23.50;62.30;;;;;;8502111;27;19940;-51
2023/08/27 12:44:55;;;;;;;;;;;23.50;62.30;;;;;;8500725;27;20330;-51
2023/08/27 12:48:56;;;;;;;;;;;23.50;62.30;;;;;;8501740;27;19915;-51
2023/08/27 12:52:56;;;;;;;;;;;23.50;62.30;;;;;;8501029;27;19911;-51
2023/08/27 12:56:57;;;;;;;;;;;23.50;62.30;;;;;;8501127;27;19912;-52
2023/08/27 13:01:00;;;;;;;;;;;23.50;62.30;;;;;;8500710;27;19913;-50
2023/08/27 13:05:03;;;;;;;;;;;23.50;62.30;;;;;;8512503;27;19918;-51
2023/08/27 13:09:04;;;;;;;;;;;23.50;62.30;;;;;;8501120;27;19922;-53
2023/08/27 13:13:04;;;;;;;;;;;23.50;62.30;;;;;;8499898;27;20357;-52
2023/08/27 13:17:05;;;;;;;;;;;23.50;62.30;;;;;;8500591;27;19928;-50
2023/08/27 13:21:07;;;;;;;;;;;23.50;62.30;;;;;;8499369;27;21592;-52
2023/08/27 13:25:08;;;;;;;;;;;23.50;62.30;;;;;;8501597;27;20031;-51
2023/08/27 13:29:08;;;;;;;;;;;23.50;62.20;;;;;;8498977;27;19923;-52
2023/08/27 13:33:09;;;;;;;;;;;23.50;62.30;;;;;;8500818;27;20296;-52
2023/08/27 13:37:10;;;;;;;;;;;23.50;62.20;;;;;;8481149;27;19934;-51
2023/08/27 13:41:10;;;;;;;;;;;23.50;62.20;;;;;;8499525;27;19912;-49
2023/08/27 13:45:11;;;;;;;;;;;23.50;62.20;;;;;;8500319;27;19903;-50
2023/08/27 13:49:11;;;;;;;;;;;23.50;62.20;;;;;;8498469;27;19916;-50
2023/08/27 13:53:12;;;;;;;;;;;23.50;62.20;;;;;;8499910;27;19914;-53
2023/08/27 13:57:13;;;;;;;;;;;23.50;62.20;;;;;;8498643;27;19914;-50
2023/08/27 14:01:14;;;;;;;;;;;23.50;62.30;;;;;;8499432;27;19954;-50
2023/08/27 14:05:14;;;;;;;;;;;23.50;62.30;;;;;;8498102;27;19912;-52
2023/08/27 14:09:15;;;;;;;;;;;23.50;62.30;;;;;;8499144;27;20018;-52
2023/08/27 14:13:15;;;;;;;;;;;23.50;62.20;;;;;;8497966;27;20376;-51
2023/08/27 14:17:17;;;;;;;;;;;23.50;62.30;;;;;;8498765;27;20311;-50
2023/08/27 14:21:18;;;;;;;;;;;23.50;62.30;;;;;;8498244;27;20014;-52
2023/08/27 14:25:18;;;;;;;;;;;23.50;62.30;;;;;;8498518;27;19912;-52
2023/08/27 14:29:19;;;;;;;;;;;23.50;62.20;;;;;;8498775;27;20325;-51
2023/08/27 14:33:19;;;;;;;;;;;23.50;62.30;;;;;;8497303;27;19912;-49
2023/08/27 14:37:20;;;;;;;;;;;23.50;62.20;;;;;;8498263;27;19937;-50
2023/08/27 14:41:21;;;;;;;;;;;23.50;62.20;;;;;;8478533;27;19919;-51
2023/08/27 14:45:21;;;;;;;;;;;23.50;62.20;;;;;;8498122;27;19960;-50
2023/08/27 14:49:22;;;;;;;;;;;23.50;62.20;;;;;;8496372;27;19912;-51
2023/08/27 14:53:22;;;;;;;;;;;23.40;62.10;;;;;;8498630;27;19919;-49
2023/08/27 14:57:23;;;;;;;;;;;23.50;62.10;;;;;;8497043;27;20330;-50
2023/08/27 15:01:23;;;;;;;;;;;23.40;62.00;;;;;;8498121;27;19912;-51
2023/08/27 15:05:24;;;;;;;;;;;23.40;62.00;;;;;;8497057;27;19926;-51
2023/08/27 15:09:25;;;;;;;;;;;23.50;62.20;;;;;;8497854;27;19961;-51
2023/08/27 15:13:25;;;;;;;;;;;23.50;62.10;;;;;;8497875;27;20395;-51
2023/08/27 15:17:26;;;;;;;;;;;23.50;62.10;;;;;;8496282;27;20269;-51
2023/08/27 15:21:26;;;;;;;;;;;23.50;62.00;;;;;;8497918;27;19911;-51
2023/08/27 15:25:27;;;;;;;;;;;23.50;62.00;;;;;;8496346;27;19911;-50
2023/08/27 15:29:28;;;;;;;;;;;23.40;61.90;;;;;;8497723;28;20099;-49
2023/08/27 15:33:28;;;;;;;;;;;23.50;62.00;;;;;;8496390;28;19960;-51
2023/08/27 15:37:29;;;;;;;;;;;23.40;61.90;;;;;;8497306;28;19918;-50
2023/08/27 15:41:30;;;;;;;;;;;23.50;61.90;;;;;;8496074;28;19911;-51
2023/08/27 15:45:31;;;;;;;;;;;23.50;62.00;;;;;;8497450;28;19908;-51
2023/08/27 15:49:31;;;;;;;;;;;23.50;62.00;;;;;;8496085;28;19912;-53
2023/08/27 15:53:32;;;;;;;;;;;23.50;61.90;;;;;;8496229;28;20276;-52
2023/08/27 15:57:33;;;;;;;;;;;23.50;61.90;;;;;;8497248;27;20295;-53
2023/08/27 16:01:33;;;;;;;;;;;23.50;61.90;;;;;;8497150;27;19916;-51
2023/08/27 16:05:34;;;;;;;;;;;23.40;61.90;;;;;;8503495;27;20140;-50
2023/08/27 16:09:35;;;;;;;;;;;23.40;61.90;;;;;;8501744;27;19922;-49
2023/08/27 16:13:36;;;;;;;;;;;23.40;61.90;;;;;;8503200;27;19918;-50
2023/08/27 16:17:37;;;;;;;;;;;23.40;61.80;;;;;;8501353;27;19923;-51
2023/08/27 16:21:37;;;;;;;;;;;23.40;61.80;;;;;;8503037;27;19912;-50
2023/08/27 16:25:38;;;;;;;;;;;23.40;61.70;;;;;;8501548;27;20364;-50
2023/08/27 16:29:38;;;;;;;;;;;23.40;61.70;;;;;;8502190;27;19911;-52
2023/08/27 16:33:39;;;;;;;;;;;23.50;61.70;;;;;;8501855;27;19967;-50
2023/08/27 16:37:39;;;;;;;;;;;23.40;61.60;;;;;;8501444;27;19915;-50
2023/08/27 16:41:40;;;;;;;;;;;23.40;61.00;;;;;;8501331;27;19915;-51
2023/08/27 16:45:41;;;;;;;;;;;23.40;61.20;;;;;;8501087;27;20409;-51
2023/08/27 16:49:41;;;;;;;;;;;23.40;61.10;;;;;;8465708;27;19932;-53
2023/08/27 16:53:42;;;;;;;;;;;23.50;61.10;;;;;;8501174;27;19912;-51
2023/08/27 16:57:42;;;;;;;;;;;23.50;60.70;;;;;;8501240;27;19990;-50
2023/08/27 17:01:43;;;;;;;;;;;23.60;60.90;;;;;;8499705;27;20358;-51
2023/08/27 17:05:44;;;;;;;;;;;23.60;60.80;;;;;;8500712;27;19915;-50
2023/08/27 17:09:45;;;;;;;;;;;23.70;60.90;;;;;;8500676;27;19908;-52
2023/08/27 17:13:45;;;;;;;;;;;23.70;60.70;;;;;;8499997;27;19911;-49
2023/08/27 17:17:46;;;;;;;;;;;23.80;64.90;;;;;;8481444;27;19927;-51
2023/08/27 17:21:46;;;;;;;;;;;23.80;66.20;;;;;;8511185;27;19956;-51
2023/08/27 17:25:47;;;;;;;;;;;23.80;64.90;;;;;;8522300;27;19922;-50
2023/08/27 17:29:47;;;;;;;;;;;23.90;64.50;;;;;;8499824;27;19937;-51
2023/08/27 17:33:52;;;;;;;;;;;23.90;63.80;;;;;;8499794;27;20047;-52
2023/08/27 17:37:52;;;;;;;;;;;23.90;63.10;;;;;;8499756;27;20298;-49
2023/08/27 17:41:53;;;;;;;;;;;23.90;63.60;;;;;;8515609;27;19951;-51
2023/08/27 17:45:53;;;;;;;;;;;23.90;63.20;;;;;;8499411;27;19915;-50
2023/08/27 17:49:54;;;;;;;;;;;23.90;62.70;;;;;;8499423;27;19958;-51
2023/08/27 17:53:55;;;;;;;;;;;23.90;62.60;;;;;;8499098;27;19912;-51
2023/08/27 17:57:55;;;;;;;;;;;23.90;62.60;;;;;;8529428;27;20464;-55
2023/08/27 18:01:56;;;;;;;;;;;23.90;63.30;;;;;;8527049;27;20288;-55
2023/08/27 18:05:57;;;;;;;;;;;23.90;62.60;;;;;;8527030;27;19915;-53
2023/08/27 18:09:57;;;;;;;;;;;23.90;62.60;;;;;;8526914;27;19922;-50
2023/08/27 18:13:58;;;;;;;;;;;23.90;63.00;;;;;;8526718;27;20299;-53
2023/08/27 18:17:58;;;;;;;;;;;23.90;62.50;;;;;;8518250;27;19967;-52
2023/08/27 18:21:59;;;;;;;;;;;23.90;62.80;;;;;;8509559;27;19919;-54
2023/08/27 18:26:03;;;;;;;;;;;24.00;62.90;;;;;;8508632;27;20249;-54
2023/08/27 18:30:04;;;;;;;;;;;24.00;62.70;;;;;;8509292;27;19918;-54
2023/08/27 18:34:04;;;;;;;;;;;24.00;63.00;;;;;;8490557;27;19919;-55
2023/08/27 18:38:05;;;;;;;;;;;23.90;62.90;;;;;;8508935;27;19915;-53
2023/08/27 18:42:06;;;;;;;;;;;24.00;62.70;;;;;;8508899;27;19922;-56
2023/08/27 18:46:06;;;;;;;;;;;23.90;63.00;;;;;;8508612;27;19927;-52
2023/08/27 18:50:07;;;;;;;;;;;23.90;62.60;;;;;;8508816;27;19919;-54
2023/08/27 18:54:08;;;;;;;;;;;24.00;62.50;;;;;;8508366;27;19925;-56
2023/08/27 18:58:09;;;;;;;;;;;24.00;62.40;;;;;;8508617;27;19912;-54
2023/08/27 19:02:09;;;;;;;;;;;24.00;62.90;;;;;;8508467;27;19936;-52
2023/08/27 19:06:10;;;;;;;;;;;23.90;62.80;;;;;;8508344;27;20608;-56
2023/08/27 19:10:15;;;;;;;;;;;23.90;62.60;;;;;;8509117;27;19959;-52
2023/08/27 19:14:15;;;;;;;;;;;23.90;63.20;;;;;;8507959;27;20049;-54
2023/08/27 19:18:16;;;;;;;;;;;23.90;62.60;;;;;;8507784;27;20431;-52
2023/08/27 19:22:17;;;;;;;;;;;23.90;62.60;;;;;;8507798;27;19945;-52
2023/08/27 19:26:17;;;;;;;;;;;23.90;62.60;;;;;;8509431;27;19934;-52
2023/08/27 19:30:18;;;;;;;;;;;24.00;62.60;;;;;;8530890;27;19911;-51
2023/08/27 19:34:19;;;;;;;;;;;24.00;62.80;;;;;;8530854;27;19911;-54
2023/08/27 19:38:19;;;;;;;;;;;23.90;62.50;;;;;;8537739;27;19911;-52
2023/08/27 19:42:20;;;;;;;;;;;23.90;62.60;;;;;;8537781;27;20431;-53
2023/08/27 19:46:20;;;;;;;;;;;23.90;62.60;;;;;;8537538;27;20352;-51
2023/08/27 19:50:21;;;;;;;;;;;23.90;62.60;;;;;;8537639;27;19923;-52
2023/08/27 19:54:22;;;;;;;;;;;23.90;62.80;;;;;;8537354;27;19911;-53
2023/08/27 19:58:23;;;;;;;;;;;24.00;62.80;;;;;;8469458;27;19915;-53
2023/08/27 20:02:24;;;;;;;;;;;24.00;65.20;;;;;;8468625;28;19908;-51
2023/08/27 20:06:25;;;;;;;;;;;24.00;66.40;;;;;;8468557;28;19915;-50
2023/08/27 20:10:25;;;;;;;;;;;23.90;65.60;;;;;;8468428;28;19923;-50
2023/08/27 20:14:26;;;;;;;;;;;24.00;65.80;;;;;;8468551;28;20030;-52
2023/08/27 20:18:26;;;;;;;;;;;24.00;65.30;;;;;;8488126;27;20327;-52
2023/08/27 20:22:27;;;;;;;;;;;24.00;65.10;;;;;;8502081;27;19919;-52
2023/08/27 20:26:28;;;;;;;;;;;24.00;64.70;;;;;;8502187;27;19922;-51
2023/08/27 20:30:29;;;;;;;;;;;24.00;64.20;;;;;;8483464;27;19946;-56
2023/08/27 20:34:29;;;;;;;;;;;24.00;64.60;;;;;;8501737;27;19911;-53
2023/08/27 20:38:30;;;;;;;;;;;24.00;64.10;;;;;;8501572;27;19919;-58
2023/08/27 20:42:30;;;;;;;;;;;24.00;64.00;;;;;;8501446;27;19964;-51
2023/08/27 20:46:33;;;;;;;;;;;24.10;64.30;;;;;;8500684;27;19957;-53
2023/08/27 20:50:33;;;;;;;;;;;24.00;63.80;;;;;;8501265;27;19961;-49
2023/08/27 20:54:34;;;;;;;;;;;24.00;64.00;;;;;;8501434;27;20376;-51
2023/08/27 20:58:34;;;;;;;;;;;24.00;63.70;;;;;;8500812;27;19919;-52
2023/08/27 21:02:35;;;;;;;;;;;24.00;63.70;;;;;;8500821;27;19911;-53
2023/08/27 21:06:35;;;;;;;;;;;24.00;63.80;;;;;;8500597;27;19920;-53
2023/08/27 21:10:36;;;;;;;;;;;24.00;63.80;;;;;;8500503;27;19915;-52
2023/08/27 21:14:36;;;;;;;;;;;24.00;63.70;;;;;;8500516;27;19907;-52
2023/08/27 21:18:37;;;;;;;;;;;24.00;63.50;;;;;;8500262;27;19923;-51
2023/08/27 21:22:38;;;;;;;;;;;24.00;63.70;;;;;;8500226;27;19912;-52
2023/08/27 21:26:39;;;;;;;;;;;24.00;63.40;;;;;;8500183;27;20345;-50
2023/08/27 21:30:39;;;;;;;;;;;24.00;63.50;;;;;;8499744;27;19919;-52
2023/08/27 21:34:40;;;;;;;;;;;24.00;63.40;;;;;;8499830;27;20395;-52
2023/08/27 21:38:40;;;;;;;;;;;24.00;63.40;;;;;;8499570;27;20291;-50
2023/08/27 21:42:41;;;;;;;;;;;24.00;63.50;;;;;;8500090;27;19965;-51
2023/08/27 21:46:42;;;;;;;;;;;24.00;63.50;;;;;;8499288;27;19964;-50
2023/08/27 21:50:42;;;;;;;;;;;24.00;63.60;;;;;;8525537;27;19956;-47
2023/08/27 21:54:43;;;;;;;;;;;24.00;63.60;;;;;;8526406;27;20436;-49
2023/08/27 21:58:44;;;;;;;;;;;24.00;63.90;;;;;;8493520;27;20006;-48
2023/08/27 22:02:44;;;;;;;;;;;23.90;63.70;;;;;;8494493;27;20364;-49
2023/08/27 22:06:46;;;;;;;;;;;23.90;63.70;;;;;;8496559;27;19968;-49
2023/08/27 22:10:50;;;;;;;;;;;23.90;63.70;;;;;;8496729;27;20494;-50
2023/08/27 22:14:51;;;;;;;;;;;23.90;63.80;;;;;;8496303;27;19907;-51
2023/08/27 22:18:53;;;;;;;;;;;23.90;63.80;;;;;;8460805;28;19931;-49
2023/08/27 22:22:54;;;;;;;;;;;23.80;63.70;;;;;;8462298;28;19954;-49
2023/08/27 22:26:54;;;;;;;;;;;23.80;63.70;;;;;;8462287;28;19924;-52
2023/08/27 22:30:55;;;;;;;;;;;23.80;63.80;;;;;;8461803;28;20430;-50
2023/08/27 22:34:55;;;;;;;;;;;23.80;63.80;;;;;;8460632;28;20319;-49
2023/08/27 22:38:56;;;;;;;;;;;23.80;63.70;;;;;;8461564;28;19923;-51
2023/08/27 22:42:56;;;;;;;;;;;23.80;63.70;;;;;;8461753;28;19916;-52
2023/08/27 22:46:57;;;;;;;;;;;23.80;63.70;;;;;;8461230;28;19969;-48
2023/08/27 22:50:57;;;;;;;;;;;23.80;63.70;;;;;;8461442;28;20352;-51
2023/08/27 22:54:58;;;;;;;;;;;23.80;63.70;;;;;;8461533;28;19973;-52
2023/08/27 22:58:58;;;;;;;;;;;23.80;63.70;;;;;;8461117;28;20539;-50
2023/08/27 23:02:59;;;;;;;;;;;23.80;63.70;;;;;;8461149;28;19908;-50
2023/08/27 23:07:00;;;;;;;;;;;23.80;63.70;;;;;;8460760;28;19912;-52
2023/08/27 23:11:00;;;;;;;;;;;23.70;63.60;;;;;;8460832;28;19916;-52
2023/08/27 23:15:01;;;;;;;;;;;23.80;63.70;;;;;;8460620;28;19915;-50
2023/08/27 23:19:02;;;;;;;;;;;23.80;63.70;;;;;;8485171;27;20022;-50